Armorique — FQDZ — position and weather

sailwx.info

Track history (hours):
 
Tides and Currents Weather Stations Pressure Air Temp Water Temp Dewpoint Dewpoint Depression Visibility Wind Speed Wind Dir Waves Ship Positions

Armorique

Last reported at 2018-Feb-22 22:59 UTC. Time now 2018-Feb-22 23:14 UTC.
Position N 48°23' W 004°29'.

Length 48 m.

Type: Dredging. MMSI: 228155700.

Date/timePositionNaut miles runAvg speedWind from/ knotsBaromVisibWave heightAir tempDewpointWater temp
2018-Feb-22 22:59N 48°23' W 004°29'0 0.0
2018-Feb-22 22:29N 48°23' W 004°29'0 0.0
2018-Feb-22 21:59N 48°23' W 004°29'0 0.0
2018-Feb-22 21:29N 48°23' W 004°29'0 0.0
2018-Feb-22 20:59N 48°23' W 004°29'0 0.0
2018-Feb-22 20:29N 48°23' W 004°29'0 0.0
2018-Feb-22 19:59N 48°23' W 004°29'0 0.0
2018-Feb-22 19:29N 48°23' W 004°29'0 0.0
2018-Feb-22 18:59N 48°23' W 004°29'0 0.0
2018-Feb-22 18:29N 48°23' W 004°29'0 0.0
2018-Feb-22 17:59N 48°23' W 004°29'0 0.0
2018-Feb-22 17:29N 48°23' W 004°29'0 0.0
2018-Feb-22 16:59N 48°23' W 004°29'0 0.0
2018-Feb-22 16:29N 48°23' W 004°29'0 0.0
2018-Feb-22 15:59N 48°23' W 004°29'0 0.0
2018-Feb-22 15:29N 48°23' W 004°29'0 0.1
2018-Feb-22 14:58N 48°23' W 004°29'3 7.4
2018-Feb-22 14:30N 48°21' W 004°33'4 8.7
2018-Feb-22 14:00N 48°18' W 004°39'0 0.0
2018-Feb-22 13:30N 48°18' W 004°39'5 9.5
2018-Feb-22 13:00N 48°14' W 004°42'611.8
2018-Feb-22 12:28N 48°08' W 004°44'511.1
2018-Feb-22 12:00N 48°03' W 004°46'9 8.3
2018-Feb-22 10:52N 47°59' W 004°33'7 5.6
2018-Feb-22 09:42N 47°54' W 004°29'  
2018-Feb-19 16:00N 47°49' W 004°26'912.0
2018-Feb-19 15:17N 47°57' W 004°31'311.7
2018-Feb-19 15:00N 47°60' W 004°33'1 1.2
2018-Feb-19 14:29N 48°00' W 004°33'0 0.1
2018-Feb-19 13:38N 48°00' W 004°33'0 0.1
2018-Feb-19 13:18N 48°00' W 004°33'1 1.5
2018-Feb-19 12:42N 47°59' W 004°33'2 7.7
2018-Feb-19 12:30N 47°60' W 004°35'610.9
2018-Feb-19 11:59N 48°02' W 004°43'4 8.1
2018-Feb-19 11:30N 48°05' W 004°44'612.4
2018-Feb-19 11:00N 48°11' W 004°41'612.0
2018-Feb-19 10:30N 48°17' W 004°38'612.6
2018-Feb-19 10:00N 48°21' W 004°32'2 4.3
2018-Feb-19 09:28N 48°23' W 004°29'0 0.0
2018-Feb-19 08:58N 48°23' W 004°29'0 0.0
2018-Feb-19 08:25N 48°23' W 004°29'0 0.0
2018-Feb-19 07:58N 48°23' W 004°29'0 0.0
2018-Feb-19 07:28N 48°23' W 004°29'0 0.0
2018-Feb-19 06:58N 48°23' W 004°29'0 0.0
2018-Feb-19 06:28N 48°23' W 004°29'0 0.0
2018-Feb-19 05:58N 48°23' W 004°29'0 0.0
2018-Feb-19 05:28N 48°23' W 004°29'0 0.0
2018-Feb-19 04:58N 48°23' W 004°29'0 0.0
2018-Feb-19 04:28N 48°23' W 004°29'0 0.0
2018-Feb-19 03:58N 48°23' W 004°29'0 0.0
2018-Feb-19 03:28N 48°23' W 004°29'0 0.0
2018-Feb-19 02:58N 48°23' W 004°29'0 0.0
2018-Feb-19 02:28N 48°23' W 004°29'0 0.0
2018-Feb-19 01:58N 48°23' W 004°29'0 0.0
2018-Feb-19 01:28N 48°23' W 004°29'0 0.0
2018-Feb-19 00:58N 48°23' W 004°29'0 0.0
2018-Feb-19 00:28N 48°23' W 004°29'0 0.0
2018-Feb-18 23:58N 48°23' W 004°29'0 0.0
2018-Feb-18 23:28N 48°23' W 004°29'0 0.0
2018-Feb-18 22:58N 48°23' W 004°29'0 0.0
2018-Feb-18 22:28N 48°23' W 004°29'0 0.0
2018-Feb-18 21:58N 48°23' W 004°29'0 0.0
2018-Feb-18 21:28N 48°23' W 004°29'0 0.0
2018-Feb-18 20:58N 48°23' W 004°29'0 0.0
2018-Feb-18 20:28N 48°23' W 004°29'0 0.0
2018-Feb-18 19:58N 48°23' W 004°29'0 0.0
2018-Feb-18 19:28N 48°23' W 004°29'0 0.0
2018-Feb-18 18:58N 48°23' W 004°29'0 0.0
2018-Feb-18 18:28N 48°23' W 004°29'0 0.0
2018-Feb-18 17:58N 48°23' W 004°29'0 0.0
2018-Feb-18 17:28N 48°23' W 004°29'0 0.0
2018-Feb-18 16:58N 48°23' W 004°29'0 0.0
2018-Feb-18 16:28N 48°23' W 004°29'0 0.0
2018-Feb-18 15:58N 48°23' W 004°29'0 0.0
2018-Feb-18 15:28N 48°23' W 004°29'0 0.0
2018-Feb-18 14:58N 48°23' W 004°29'0 0.0
2018-Feb-18 14:28N 48°23' W 004°29'0 0.0
2018-Feb-18 13:58N 48°23' W 004°29'0 0.0
2018-Feb-18 13:28N 48°23' W 004°29'0 0.0
2018-Feb-18 12:58N 48°23' W 004°29'0 0.0
2018-Feb-18 12:28N 48°23' W 004°29'0 0.0
2018-Feb-18 11:58N 48°23' W 004°29'0 0.0
2018-Feb-18 11:28N 48°23' W 004°29'0 0.0
2018-Feb-18 10:58N 48°23' W 004°29'0 0.0
2018-Feb-18 10:28N 48°23' W 004°29'0 0.0
2018-Feb-18 09:58N 48°23' W 004°29'0 0.0
2018-Feb-18 09:28N 48°23' W 004°29'0 0.0
2018-Feb-18 08:58N 48°23' W 004°29'0 0.0
2018-Feb-18 08:28N 48°23' W 004°29'0 0.0
2018-Feb-18 07:58N 48°23' W 004°29'0 0.0
2018-Feb-18 07:28N 48°23' W 004°29'0 0.0
2018-Feb-18 06:58N 48°23' W 004°29'0 0.0
2018-Feb-18 06:28N 48°23' W 004°29'0 0.0
2018-Feb-18 05:58N 48°23' W 004°29'0 0.0
2018-Feb-18 05:28N 48°23' W 004°29'0 0.0
2018-Feb-18 04:58N 48°23' W 004°29'0 0.0
2018-Feb-18 04:28N 48°23' W 004°29'0 0.0
2018-Feb-18 03:58N 48°23' W 004°29'0 0.0
2018-Feb-18 03:28N 48°23' W 004°29'0 0.0
2018-Feb-18 02:58N 48°23' W 004°29'0 0.0
2018-Feb-18 02:28N 48°23' W 004°29'0 0.0
2018-Feb-18 01:58N 48°23' W 004°29'0 0.0
2018-Feb-18 01:28N 48°23' W 004°29'0 0.0
2018-Feb-18 00:58N 48°23' W 004°29'0 0.0
2018-Feb-18 00:28N 48°23' W 004°29'0 0.0
2018-Feb-17 23:58N 48°23' W 004°29'0 0.0
2018-Feb-17 23:28N 48°23' W 004°29'0 0.0
2018-Feb-17 22:58N 48°23' W 004°29'0 0.0
2018-Feb-17 22:28N 48°23' W 004°29'0 0.0
2018-Feb-17 21:58N 48°23' W 004°29'0 0.0
2018-Feb-17 21:28N 48°23' W 004°29'0 0.0
2018-Feb-17 20:58N 48°23' W 004°29'0 0.0
2018-Feb-17 20:28N 48°23' W 004°29'0 0.0
2018-Feb-17 19:58N 48°23' W 004°29'0 0.0
2018-Feb-17 19:28N 48°23' W 004°29'0 0.0
2018-Feb-17 18:58N 48°23' W 004°29'0 0.0
2018-Feb-17 18:28N 48°23' W 004°29'0 0.0
2018-Feb-17 17:58N 48°23' W 004°29'0 0.0
2018-Feb-17 17:28N 48°23' W 004°29'0 0.0
2018-Feb-17 16:58N 48°23' W 004°29'0 0.0
2018-Feb-17 16:28N 48°23' W 004°29'0 0.0
2018-Feb-17 15:58N 48°23' W 004°29'0 0.0
2018-Feb-17 15:28N 48°23' W 004°29'0 0.0
2018-Feb-17 14:58N 48°23' W 004°29'0 0.0
2018-Feb-17 14:28N 48°23' W 004°29'0 0.0
2018-Feb-17 13:58N 48°23' W 004°29'0 0.0
2018-Feb-17 13:28N 48°23' W 004°29'0 0.0
2018-Feb-17 12:58N 48°23' W 004°29'0 0.0
2018-Feb-17 12:28N 48°23' W 004°29'0 0.0
2018-Feb-17 11:58N 48°23' W 004°29'0 0.0
2018-Feb-17 11:28N 48°23' W 004°29'0 0.0
2018-Feb-17 10:58N 48°23' W 004°29'0 0.0
2018-Feb-17 10:28N 48°23' W 004°29'0 0.0
2018-Feb-17 09:58N 48°23' W 004°29'0 0.0
2018-Feb-17 09:28N 48°23' W 004°29'0 0.0
2018-Feb-17 08:58N 48°23' W 004°29'0 0.0
2018-Feb-17 08:28N 48°23' W 004°29'0 0.0
2018-Feb-17 07:58N 48°23' W 004°29'0 0.0
2018-Feb-17 07:28N 48°23' W 004°29'0 0.0
2018-Feb-17 06:58N 48°23' W 004°29'0 0.0
2018-Feb-17 06:28N 48°23' W 004°29'0 0.0
2018-Feb-17 05:58N 48°23' W 004°29'0 0.0
2018-Feb-17 05:28N 48°23' W 004°29'0 0.0
2018-Feb-17 04:58N 48°23' W 004°29'0 0.0
2018-Feb-17 04:28N 48°23' W 004°29'0 0.0
2018-Feb-17 03:58N 48°23' W 004°29'0 0.0
2018-Feb-17 03:28N 48°23' W 004°29'0 0.0
2018-Feb-17 02:58N 48°23' W 004°29'0 0.0
2018-Feb-17 02:28N 48°23' W 004°29'0 0.0
2018-Feb-17 01:58N 48°23' W 004°29'0 0.0
2018-Feb-17 01:28N 48°23' W 004°29'0 0.0
2018-Feb-17 00:58N 48°23' W 004°29'0 0.0
2018-Feb-17 00:28N 48°23' W 004°29'0 0.0
2018-Feb-16 23:58N 48°23' W 004°29'0 0.0
2018-Feb-16 23:28N 48°23' W 004°29'0 0.0
2018-Feb-16 22:58N 48°23' W 004°29'0 0.0
2018-Feb-16 22:28N 48°23' W 004°29'0 0.0
2018-Feb-16 21:58N 48°23' W 004°29'0 0.0
2018-Feb-16 21:28N 48°23' W 004°29'0 0.0
2018-Feb-16 20:58N 48°23' W 004°29'0 0.0
2018-Feb-16 20:28N 48°23' W 004°29'0 0.0
2018-Feb-16 19:58N 48°23' W 004°29'0 0.0
2018-Feb-16 19:28N 48°23' W 004°29'0 0.0
2018-Feb-16 18:58N 48°23' W 004°29'0 0.0
2018-Feb-16 18:28N 48°23' W 004°29'0 0.0
2018-Feb-16 17:58N 48°23' W 004°29'0 0.0
2018-Feb-16 17:28N 48°23' W 004°29'0 0.0
2018-Feb-16 16:58N 48°23' W 004°29'0 0.0
2018-Feb-16 16:28N 48°23' W 004°29'0 0.0
2018-Feb-16 15:58N 48°23' W 004°29'0 0.0
2018-Feb-16 15:28N 48°23' W 004°29'0 0.0
2018-Feb-16 14:58N 48°23' W 004°29'0 0.0
2018-Feb-16 14:28N 48°23' W 004°29'0 0.0
2018-Feb-16 13:58N 48°23' W 004°29'0 0.0
2018-Feb-16 13:28N 48°23' W 004°29'0 0.0
2018-Feb-16 12:58N 48°23' W 004°29'0 0.0
2018-Feb-16 12:30N 48°23' W 004°29'0 0.0
2018-Feb-16 12:00N 48°23' W 004°29'0 0.0
2018-Feb-16 11:30N 48°23' W 004°29'0 0.0
2018-Feb-16 11:00N 48°23' W 004°29'0 0.0
2018-Feb-16 10:30N 48°23' W 004°29'0 0.0
2018-Feb-16 10:00N 48°23' W 004°29'0 0.0
2018-Feb-16 09:30N 48°23' W 004°29'0 0.0
2018-Feb-16 09:00N 48°23' W 004°29'0 0.0
2018-Feb-16 08:30N 48°23' W 004°29'0 0.0
2018-Feb-16 08:00N 48°23' W 004°29'0 0.0
2018-Feb-16 07:30N 48°23' W 004°29'0 0.0
2018-Feb-16 07:00N 48°23' W 004°29'0 0.0
2018-Feb-16 06:30N 48°23' W 004°29'0 0.0
2018-Feb-16 06:00N 48°23' W 004°29'0 0.0
2018-Feb-16 05:30N 48°23' W 004°29'0 0.0
2018-Feb-16 05:00N 48°23' W 004°29'0 0.0
2018-Feb-16 04:30N 48°23' W 004°29'0 0.0
2018-Feb-16 04:00N 48°23' W 004°29'0 0.0
2018-Feb-16 03:30N 48°23' W 004°29'0 0.0
2018-Feb-16 03:00N 48°23' W 004°29'0 0.0
2018-Feb-16 02:30N 48°23' W 004°29'0 0.0
2018-Feb-16 02:00N 48°23' W 004°29'0 0.0
2018-Feb-16 01:30N 48°23' W 004°29'0 0.0
2018-Feb-16 01:00N 48°23' W 004°29'0 0.0
2018-Feb-16 00:30N 48°23' W 004°29'0 0.0
2018-Feb-16 00:00N 48°23' W 004°29'0 0.0
2018-Feb-15 23:30N 48°23' W 004°29'0 0.0
2018-Feb-15 23:00N 48°23' W 004°29'0 0.0
2018-Feb-15 22:30N 48°23' W 004°29'0 0.0
2018-Feb-15 22:00N 48°23' W 004°29'0 0.0
2018-Feb-15 21:30N 48°23' W 004°29'0 0.0
2018-Feb-15 21:00N 48°23' W 004°29'0 0.0
2018-Feb-15 20:30N 48°23' W 004°29'0 0.0
2018-Feb-15 20:00N 48°23' W 004°29'0 0.0
2018-Feb-15 19:30N 48°23' W 004°29'0 0.0
2018-Feb-15 19:00N 48°23' W 004°29'0 0.0
2018-Feb-15 18:30N 48°23' W 004°29'0 0.0
2018-Feb-15 18:00N 48°23' W 004°29'0 0.0
2018-Feb-15 17:30N 48°23' W 004°29'0 0.0
2018-Feb-15 17:00N 48°23' W 004°29'0 0.0
2018-Feb-15 16:30N 48°23' W 004°29'0 0.0
2018-Feb-15 16:00N 48°23' W 004°29'0 0.0
2018-Feb-15 15:30N 48°23' W 004°29'0 0.0
2018-Feb-15 15:00N 48°23' W 004°29'0 0.0
2018-Feb-15 14:30N 48°23' W 004°29'0 0.0
2018-Feb-15 14:00N 48°23' W 004°29'0 0.0
2018-Feb-15 13:30N 48°23' W 004°29'0 0.0
2018-Feb-15 13:00N 48°23' W 004°29'0 0.0
2018-Feb-15 12:30N 48°23' W 004°29'0 0.0
2018-Feb-15 12:00N 48°23' W 004°29'0 0.0
2018-Feb-15 11:30N 48°23' W 004°29'0 0.0
2018-Feb-15 11:00N 48°23' W 004°29'0 0.0
2018-Feb-15 10:30N 48°23' W 004°29'0 0.0
2018-Feb-15 10:00N 48°23' W 004°29'0 0.0
2018-Feb-15 09:30N 48°23' W 004°29'0 0.0
2018-Feb-15 09:00N 48°23' W 004°29'0 0.0
2018-Feb-15 08:30N 48°23' W 004°29'0 0.0
2018-Feb-15 08:00N 48°23' W 004°29'0 0.0
2018-Feb-15 07:30N 48°23' W 004°29'0 0.0
2018-Feb-15 07:00N 48°23' W 004°29'0 0.0
2018-Feb-15 06:30N 48°23' W 004°29'0 0.0
2018-Feb-15 06:00N 48°23' W 004°29'0 0.0
2018-Feb-15 05:30N 48°23' W 004°29'0 0.0
2018-Feb-15 05:00N 48°23' W 004°29'0 0.0
2018-Feb-15 04:30N 48°23' W 004°29'0 0.0
2018-Feb-15 04:00N 48°23' W 004°29'0 0.0
2018-Feb-15 03:30N 48°23' W 004°29'0 0.0
2018-Feb-15 03:00N 48°23' W 004°29'0 0.0
2018-Feb-15 02:30N 48°23' W 004°29'0 0.0
2018-Feb-15 02:00N 48°23' W 004°29'0 0.0
2018-Feb-15 01:30N 48°23' W 004°29'0 0.0
2018-Feb-15 01:00N 48°23' W 004°29'0 0.0
2018-Feb-15 00:30N 48°23' W 004°29'0 0.0
2018-Feb-15 00:00N 48°23' W 004°29'0 0.0
2018-Feb-14 23:30N 48°23' W 004°29'0 0.0
2018-Feb-14 23:00N 48°23' W 004°29'0 0.0
2018-Feb-14 22:30N 48°23' W 004°29'0 0.0
2018-Feb-14 22:00N 48°23' W 004°29'0 0.0
2018-Feb-14 21:30N 48°23' W 004°29'0 0.0
2018-Feb-14 21:00N 48°23' W 004°29'0 0.0
2018-Feb-14 20:30N 48°23' W 004°29'0 0.0
2018-Feb-14 20:00N 48°23' W 004°29'0 0.0
2018-Feb-14 19:30N 48°23' W 004°29'0 0.0
2018-Feb-14 19:00N 48°23' W 004°29'0 0.0
2018-Feb-14 18:30N 48°23' W 004°29'0 0.0
2018-Feb-14 18:00N 48°23' W 004°29'0 0.0
2018-Feb-14 17:30N 48°23' W 004°29'0 0.0
2018-Feb-14 17:00N 48°23' W 004°29'0 0.0
2018-Feb-14 16:30N 48°23' W 004°29'0 0.0
2018-Feb-14 16:00N 48°23' W 004°29'0 0.0
2018-Feb-14 15:30N 48°23' W 004°29'0 0.0
2018-Feb-14 15:00N 48°23' W 004°29'0 0.0
2018-Feb-14 14:30N 48°23' W 004°29'0 0.0
2018-Feb-14 14:00N 48°23' W 004°29'0 0.0
2018-Feb-14 13:30N 48°23' W 004°29'0 0.0
2018-Feb-14 13:00N 48°23' W 004°29'0 0.0
2018-Feb-14 12:28N 48°23' W 004°29'0 0.0
2018-Feb-14 11:58N 48°23' W 004°29'0 0.0
2018-Feb-14 11:28N 48°23' W 004°29'0 0.0
2018-Feb-14 10:58N 48°23' W 004°29'0 0.0
2018-Feb-14 10:28N 48°23' W 004°29'0 0.0
2018-Feb-14 09:58N 48°23' W 004°29'0 0.0
2018-Feb-14 09:28N 48°23' W 004°29'0 0.0
2018-Feb-14 08:58N 48°23' W 004°29'0 0.0
2018-Feb-14 08:28N 48°23' W 004°29'0 0.0
2018-Feb-14 07:58N 48°23' W 004°29'0 0.0
2018-Feb-14 07:28N 48°23' W 004°29'0 0.0
2018-Feb-14 06:58N 48°23' W 004°29'0 0.0
2018-Feb-14 06:28N 48°23' W 004°29'0 0.0
2018-Feb-14 05:58N 48°23' W 004°29'0 0.0
2018-Feb-14 05:28N 48°23' W 004°29'0 0.0
2018-Feb-14 04:58N 48°23' W 004°29'0 0.0
2018-Feb-14 04:28N 48°23' W 004°29'0 0.0
2018-Feb-14 03:58N 48°23' W 004°29'0 0.0
2018-Feb-14 03:28N 48°23' W 004°29'0 0.0
2018-Feb-14 02:58N 48°23' W 004°29'0 0.0
2018-Feb-14 02:28N 48°23' W 004°29'0 0.0
2018-Feb-14 01:58N 48°23' W 004°29'0 0.0
2018-Feb-14 01:28N 48°23' W 004°29'0 0.0
2018-Feb-14 00:58N 48°23' W 004°29'0 0.0
2018-Feb-14 00:28N 48°23' W 004°29'0 0.0
2018-Feb-13 23:58N 48°23' W 004°29'0 0.0
2018-Feb-13 23:28N 48°23' W 004°29'0 0.0
2018-Feb-13 22:58N 48°23' W 004°29'0 0.0
2018-Feb-13 22:28N 48°23' W 004°29'0 0.0
2018-Feb-13 21:58N 48°23' W 004°29'0 0.0
2018-Feb-13 21:28N 48°23' W 004°29'0 0.0
2018-Feb-13 20:58N 48°23' W 004°29'0 0.0
2018-Feb-13 20:28N 48°23' W 004°29'0 0.0
2018-Feb-13 19:58N 48°23' W 004°29'0 0.0
2018-Feb-13 19:28N 48°23' W 004°29'0 0.0
2018-Feb-13 18:58N 48°23' W 004°29'0 0.0
2018-Feb-13 18:28N 48°23' W 004°29'0 0.0
2018-Feb-13 17:58N 48°23' W 004°29'0 0.0
2018-Feb-13 17:28N 48°23' W 004°29'0 0.0
2018-Feb-13 16:58N 48°23' W 004°29'0 0.0
2018-Feb-13 16:28N 48°23' W 004°29'0 0.0
2018-Feb-13 15:58N 48°23' W 004°29'0 0.0
2018-Feb-13 15:28N 48°23' W 004°29'0 0.0
2018-Feb-13 14:58N 48°23' W 004°29'0 0.0
2018-Feb-13 14:28N 48°23' W 004°29'0 0.0
2018-Feb-13 13:58N 48°23' W 004°29'0 0.0
2018-Feb-13 13:28N 48°23' W 004°29'0 0.0
2018-Feb-13 12:58N 48°23' W 004°29'0 0.0
2018-Feb-13 12:28N 48°23' W 004°29'0 0.0
2018-Feb-13 11:58N 48°23' W 004°29'0 0.0
2018-Feb-13 11:28N 48°23' W 004°29'0 0.0
2018-Feb-13 10:58N 48°23' W 004°29'0 0.0
2018-Feb-13 10:28N 48°23' W 004°29'0 0.0
2018-Feb-13 09:58N 48°23' W 004°29'0 0.0
2018-Feb-13 09:28N 48°23' W 004°29'0 0.0
2018-Feb-13 08:58N 48°23' W 004°29'0 0.0
2018-Feb-13 08:28N 48°23' W 004°29'0 0.0
2018-Feb-13 07:58N 48°23' W 004°29'0 0.0
2018-Feb-13 07:28N 48°23' W 004°29'0 0.0
2018-Feb-13 06:58N 48°23' W 004°29'0 0.0
2018-Feb-13 06:28N 48°23' W 004°29'0 0.0
2018-Feb-13 05:58N 48°23' W 004°29'0 0.0
2018-Feb-13 05:28N 48°23' W 004°29'0 0.0
2018-Feb-13 04:58N 48°23' W 004°29'0 0.0
2018-Feb-13 04:28N 48°23' W 004°29'0 0.0
2018-Feb-13 03:58N 48°23' W 004°29'0 0.0
2018-Feb-13 03:28N 48°23' W 004°29'0 0.0
2018-Feb-13 02:58N 48°23' W 004°29'0 0.0
2018-Feb-13 02:28N 48°23' W 004°29'0 0.0
2018-Feb-13 01:58N 48°23' W 004°29'0 0.0
2018-Feb-13 01:28N 48°23' W 004°29'0 0.0
2018-Feb-13 00:58N 48°23' W 004°29'0 0.0
2018-Feb-13 00:28N 48°23' W 004°29'0 0.0
2018-Feb-12 23:58N 48°23' W 004°29'0 0.0
2018-Feb-12 23:28N 48°23' W 004°29'  
Track history (hours):
 
Tides and Currents Weather Stations Pressure Air Temp Water Temp Dewpoint Dewpoint Depression Visibility Wind Speed Wind Dir Waves Ship Positions

Armorique

Last reported at 2018-Feb-22 22:59 UTC. Time now 2018-Feb-22 23:14 UTC.
Position N 48°23' W 004°29'.

Length 48 m.

Type: Dredging. MMSI: 228155700.

Date/timePositionNaut miles runAvg speedWind from/ knotsBaromVisibWave heightAir tempDewpointWater temp
2018-Feb-22 22:59N 48°23' W 004°29'0 0.0
2018-Feb-22 22:29N 48°23' W 004°29'0 0.0
2018-Feb-22 21:59N 48°23' W 004°29'0 0.0
2018-Feb-22 21:29N 48°23' W 004°29'0 0.0
2018-Feb-22 20:59N 48°23' W 004°29'0 0.0
2018-Feb-22 20:29N 48°23' W 004°29'0 0.0
2018-Feb-22 19:59N 48°23' W 004°29'0 0.0
2018-Feb-22 19:29N 48°23' W 004°29'0 0.0
2018-Feb-22 18:59N 48°23' W 004°29'0 0.0
2018-Feb-22 18:29N 48°23' W 004°29'0 0.0
2018-Feb-22 17:59N 48°23' W 004°29'0 0.0
2018-Feb-22 17:29N 48°23' W 004°29'0 0.0
2018-Feb-22 16:59N 48°23' W 004°29'0 0.0
2018-Feb-22 16:29N 48°23' W 004°29'0 0.0
2018-Feb-22 15:59N 48°23' W 004°29'0 0.0
2018-Feb-22 15:29N 48°23' W 004°29'0 0.1
2018-Feb-22 14:58N 48°23' W 004°29'3 7.4
2018-Feb-22 14:30N 48°21' W 004°33'4 8.7
2018-Feb-22 14:00N 48°18' W 004°39'0 0.0
2018-Feb-22 13:30N 48°18' W 004°39'5 9.5
2018-Feb-22 13:00N 48°14' W 004°42'611.8
2018-Feb-22 12:28N 48°08' W 004°44'511.1
2018-Feb-22 12:00N 48°03' W 004°46'9 8.3
2018-Feb-22 10:52N 47°59' W 004°33'7 5.6
2018-Feb-22 09:42N 47°54' W 004°29'  
2018-Feb-19 16:00N 47°49' W 004°26'912.0
2018-Feb-19 15:17N 47°57' W 004°31'311.7
2018-Feb-19 15:00N 47°60' W 004°33'1 1.2
2018-Feb-19 14:29N 48°00' W 004°33'0 0.1
2018-Feb-19 13:38N 48°00' W 004°33'0 0.1
2018-Feb-19 13:18N 48°00' W 004°33'1 1.5
2018-Feb-19 12:42N 47°59' W 004°33'2 7.7
2018-Feb-19 12:30N 47°60' W 004°35'610.9
2018-Feb-19 11:59N 48°02' W 004°43'4 8.1
2018-Feb-19 11:30N 48°05' W 004°44'612.4
2018-Feb-19 11:00N 48°11' W 004°41'612.0
2018-Feb-19 10:30N 48°17' W 004°38'612.6
2018-Feb-19 10:00N 48°21' W 004°32'2 4.3
2018-Feb-19 09:28N 48°23' W 004°29'0 0.0
2018-Feb-19 08:58N 48°23' W 004°29'0 0.0
2018-Feb-19 08:25N 48°23' W 004°29'0 0.0
2018-Feb-19 07:58N 48°23' W 004°29'0 0.0
2018-Feb-19 07:28N 48°23' W 004°29'0 0.0
2018-Feb-19 06:58N 48°23' W 004°29'0 0.0
2018-Feb-19 06:28N 48°23' W 004°29'0 0.0
2018-Feb-19 05:58N 48°23' W 004°29'0 0.0
2018-Feb-19 05:28N 48°23' W 004°29'0 0.0
2018-Feb-19 04:58N 48°23' W 004°29'0 0.0
2018-Feb-19 04:28N 48°23' W 004°29'0 0.0
2018-Feb-19 03:58N 48°23' W 004°29'0 0.0
2018-Feb-19 03:28N 48°23' W 004°29'0 0.0
2018-Feb-19 02:58N 48°23' W 004°29'0 0.0
2018-Feb-19 02:28N 48°23' W 004°29'0 0.0
2018-Feb-19 01:58N 48°23' W 004°29'0 0.0
2018-Feb-19 01:28N 48°23' W 004°29'0 0.0
2018-Feb-19 00:58N 48°23' W 004°29'0 0.0
2018-Feb-19 00:28N 48°23' W 004°29'0 0.0
2018-Feb-18 23:58N 48°23' W 004°29'0 0.0
2018-Feb-18 23:28N 48°23' W 004°29'0 0.0
2018-Feb-18 22:58N 48°23' W 004°29'0 0.0
2018-Feb-18 22:28N 48°23' W 004°29'0 0.0
2018-Feb-18 21:58N 48°23' W 004°29'0 0.0
2018-Feb-18 21:28N 48°23' W 004°29'0 0.0
2018-Feb-18 20:58N 48°23' W 004°29'0 0.0
2018-Feb-18 20:28N 48°23' W 004°29'0 0.0
2018-Feb-18 19:58N 48°23' W 004°29'0 0.0
2018-Feb-18 19:28N 48°23' W 004°29'0 0.0
2018-Feb-18 18:58N 48°23' W 004°29'0 0.0
2018-Feb-18 18:28N 48°23' W 004°29'0 0.0
2018-Feb-18 17:58N 48°23' W 004°29'0 0.0
2018-Feb-18 17:28N 48°23' W 004°29'0 0.0
2018-Feb-18 16:58N 48°23' W 004°29'0 0.0
2018-Feb-18 16:28N 48°23' W 004°29'0 0.0
2018-Feb-18 15:58N 48°23' W 004°29'0 0.0
2018-Feb-18 15:28N 48°23' W 004°29'0 0.0
2018-Feb-18 14:58N 48°23' W 004°29'0 0.0
2018-Feb-18 14:28N 48°23' W 004°29'0 0.0
2018-Feb-18 13:58N 48°23' W 004°29'0 0.0
2018-Feb-18 13:28N 48°23' W 004°29'0 0.0
2018-Feb-18 12:58N 48°23' W 004°29'0 0.0
2018-Feb-18 12:28N 48°23' W 004°29'0 0.0
2018-Feb-18 11:58N 48°23' W 004°29'0 0.0
2018-Feb-18 11:28N 48°23' W 004°29'0 0.0
2018-Feb-18 10:58N 48°23' W 004°29'0 0.0
2018-Feb-18 10:28N 48°23' W 004°29'0 0.0
2018-Feb-18 09:58N 48°23' W 004°29'0 0.0
2018-Feb-18 09:28N 48°23' W 004°29'0 0.0
2018-Feb-18 08:58N 48°23' W 004°29'0 0.0
2018-Feb-18 08:28N 48°23' W 004°29'0 0.0
2018-Feb-18 07:58N 48°23' W 004°29'0 0.0
2018-Feb-18 07:28N 48°23' W 004°29'0 0.0
2018-Feb-18 06:58N 48°23' W 004°29'0 0.0
2018-Feb-18 06:28N 48°23' W 004°29'0 0.0
2018-Feb-18 05:58N 48°23' W 004°29'0 0.0
2018-Feb-18 05:28N 48°23' W 004°29'0 0.0
2018-Feb-18 04:58N 48°23' W 004°29'0 0.0
2018-Feb-18 04:28N 48°23' W 004°29'0 0.0
2018-Feb-18 03:58N 48°23' W 004°29'0 0.0
2018-Feb-18 03:28N 48°23' W 004°29'0 0.0
2018-Feb-18 02:58N 48°23' W 004°29'0 0.0
2018-Feb-18 02:28N 48°23' W 004°29'0 0.0
2018-Feb-18 01:58N 48°23' W 004°29'0 0.0
2018-Feb-18 01:28N 48°23' W 004°29'0 0.0
2018-Feb-18 00:58N 48°23' W 004°29'0 0.0
2018-Feb-18 00:28N 48°23' W 004°29'0 0.0
2018-Feb-17 23:58N 48°23' W 004°29'0 0.0
2018-Feb-17 23:28N 48°23' W 004°29'0 0.0
2018-Feb-17 22:58N 48°23' W 004°29'0 0.0
2018-Feb-17 22:28N 48°23' W 004°29'0 0.0
2018-Feb-17 21:58N 48°23' W 004°29'0 0.0
2018-Feb-17 21:28N 48°23' W 004°29'0 0.0
2018-Feb-17 20:58N 48°23' W 004°29'0 0.0
2018-Feb-17 20:28N 48°23' W 004°29'0 0.0
2018-Feb-17 19:58N 48°23' W 004°29'0 0.0
2018-Feb-17 19:28N 48°23' W 004°29'0 0.0
2018-Feb-17 18:58N 48°23' W 004°29'0 0.0
2018-Feb-17 18:28N 48°23' W 004°29'0 0.0
2018-Feb-17 17:58N 48°23' W 004°29'0 0.0
2018-Feb-17 17:28N 48°23' W 004°29'0 0.0
2018-Feb-17 16:58N 48°23' W 004°29'0 0.0
2018-Feb-17 16:28N 48°23' W 004°29'0 0.0
2018-Feb-17 15:58N 48°23' W 004°29'0 0.0
2018-Feb-17 15:28N 48°23' W 004°29'0 0.0
2018-Feb-17 14:58N 48°23' W 004°29'0 0.0
2018-Feb-17 14:28N 48°23' W 004°29'0 0.0
2018-Feb-17 13:58N 48°23' W 004°29'0 0.0
2018-Feb-17 13:28N 48°23' W 004°29'0 0.0
2018-Feb-17 12:58N 48°23' W 004°29'0 0.0
2018-Feb-17 12:28N 48°23' W 004°29'0 0.0
2018-Feb-17 11:58N 48°23' W 004°29'0 0.0
2018-Feb-17 11:28N 48°23' W 004°29'0 0.0
2018-Feb-17 10:58N 48°23' W 004°29'0 0.0
2018-Feb-17 10:28N 48°23' W 004°29'0 0.0
2018-Feb-17 09:58N 48°23' W 004°29'0 0.0
2018-Feb-17 09:28N 48°23' W 004°29'0 0.0
2018-Feb-17 08:58N 48°23' W 004°29'0 0.0
2018-Feb-17 08:28N 48°23' W 004°29'0 0.0
2018-Feb-17 07:58N 48°23' W 004°29'0 0.0
2018-Feb-17 07:28N 48°23' W 004°29'0 0.0
2018-Feb-17 06:58N 48°23' W 004°29'0 0.0
2018-Feb-17 06:28N 48°23' W 004°29'0 0.0
2018-Feb-17 05:58N 48°23' W 004°29'0 0.0
2018-Feb-17 05:28N 48°23' W 004°29'0 0.0
2018-Feb-17 04:58N 48°23' W 004°29'0 0.0
2018-Feb-17 04:28N 48°23' W 004°29'0 0.0
2018-Feb-17 03:58N 48°23' W 004°29'0 0.0
2018-Feb-17 03:28N 48°23' W 004°29'0 0.0
2018-Feb-17 02:58N 48°23' W 004°29'0 0.0
2018-Feb-17 02:28N 48°23' W 004°29'0 0.0
2018-Feb-17 01:58N 48°23' W 004°29'0 0.0
2018-Feb-17 01:28N 48°23' W 004°29'0 0.0
2018-Feb-17 00:58N 48°23' W 004°29'0 0.0
2018-Feb-17 00:28N 48°23' W 004°29'0 0.0
2018-Feb-16 23:58N 48°23' W 004°29'0 0.0
2018-Feb-16 23:28N 48°23' W 004°29'0 0.0
2018-Feb-16 22:58N 48°23' W 004°29'0 0.0
2018-Feb-16 22:28N 48°23' W 004°29'0 0.0
2018-Feb-16 21:58N 48°23' W 004°29'0 0.0
2018-Feb-16 21:28N 48°23' W 004°29'0 0.0
2018-Feb-16 20:58N 48°23' W 004°29'0 0.0
2018-Feb-16 20:28N 48°23' W 004°29'0 0.0
2018-Feb-16 19:58N 48°23' W 004°29'0 0.0
2018-Feb-16 19:28N 48°23' W 004°29'0 0.0
2018-Feb-16 18:58N 48°23' W 004°29'0 0.0
2018-Feb-16 18:28N 48°23' W 004°29'0 0.0
2018-Feb-16 17:58N 48°23' W 004°29'0 0.0
2018-Feb-16 17:28N 48°23' W 004°29'0 0.0
2018-Feb-16 16:58N 48°23' W 004°29'0 0.0
2018-Feb-16 16:28N 48°23' W 004°29'0 0.0
2018-Feb-16 15:58N 48°23' W 004°29'0 0.0
2018-Feb-16 15:28N 48°23' W 004°29'0 0.0
2018-Feb-16 14:58N 48°23' W 004°29'0 0.0
2018-Feb-16 14:28N 48°23' W 004°29'0 0.0
2018-Feb-16 13:58N 48°23' W 004°29'0 0.0
2018-Feb-16 13:28N 48°23' W 004°29'0 0.0
2018-Feb-16 12:58N 48°23' W 004°29'0 0.0
2018-Feb-16 12:30N 48°23' W 004°29'0 0.0
2018-Feb-16 12:00N 48°23' W 004°29'0 0.0
2018-Feb-16 11:30N 48°23' W 004°29'0 0.0
2018-Feb-16 11:00N 48°23' W 004°29'0 0.0
2018-Feb-16 10:30N 48°23' W 004°29'0 0.0
2018-Feb-16 10:00N 48°23' W 004°29'0 0.0
2018-Feb-16 09:30N 48°23' W 004°29'0 0.0
2018-Feb-16 09:00N 48°23' W 004°29'0 0.0
2018-Feb-16 08:30N 48°23' W 004°29'0 0.0
2018-Feb-16 08:00N 48°23' W 004°29'0 0.0
2018-Feb-16 07:30N 48°23' W 004°29'0 0.0
2018-Feb-16 07:00N 48°23' W 004°29'0 0.0
2018-Feb-16 06:30N 48°23' W 004°29'0 0.0
2018-Feb-16 06:00N 48°23' W 004°29'0 0.0
2018-Feb-16 05:30N 48°23' W 004°29'0 0.0
2018-Feb-16 05:00N 48°23' W 004°29'0 0.0
2018-Feb-16 04:30N 48°23' W 004°29'0 0.0
2018-Feb-16 04:00N 48°23' W 004°29'0 0.0
2018-Feb-16 03:30N 48°23' W 004°29'0 0.0
2018-Feb-16 03:00N 48°23' W 004°29'0 0.0
2018-Feb-16 02:30N 48°23' W 004°29'0 0.0
2018-Feb-16 02:00N 48°23' W 004°29'0 0.0
2018-Feb-16 01:30N 48°23' W 004°29'0 0.0
2018-Feb-16 01:00N 48°23' W 004°29'0 0.0
2018-Feb-16 00:30N 48°23' W 004°29'0 0.0
2018-Feb-16 00:00N 48°23' W 004°29'0 0.0
2018-Feb-15 23:30N 48°23' W 004°29'0 0.0
2018-Feb-15 23:00N 48°23' W 004°29'0 0.0
2018-Feb-15 22:30N 48°23' W 004°29'0 0.0
2018-Feb-15 22:00N 48°23' W 004°29'0 0.0
2018-Feb-15 21:30N 48°23' W 004°29'0 0.0
2018-Feb-15 21:00N 48°23' W 004°29'0 0.0
2018-Feb-15 20:30N 48°23' W 004°29'0 0.0
2018-Feb-15 20:00N 48°23' W 004°29'0 0.0
2018-Feb-15 19:30N 48°23' W 004°29'0 0.0
2018-Feb-15 19:00N 48°23' W 004°29'0 0.0
2018-Feb-15 18:30N 48°23' W 004°29'0 0.0
2018-Feb-15 18:00N 48°23' W 004°29'0 0.0
2018-Feb-15 17:30N 48°23' W 004°29'0 0.0
2018-Feb-15 17:00N 48°23' W 004°29'0 0.0
2018-Feb-15 16:30N 48°23' W 004°29'0 0.0
2018-Feb-15 16:00N 48°23' W 004°29'0 0.0
2018-Feb-15 15:30N 48°23' W 004°29'0 0.0
2018-Feb-15 15:00N 48°23' W 004°29'0 0.0
2018-Feb-15 14:30N 48°23' W 004°29'0 0.0
2018-Feb-15 14:00N 48°23' W 004°29'0 0.0
2018-Feb-15 13:30N 48°23' W 004°29'0 0.0
2018-Feb-15 13:00N 48°23' W 004°29'0 0.0
2018-Feb-15 12:30N 48°23' W 004°29'0 0.0
2018-Feb-15 12:00N 48°23' W 004°29'0 0.0
2018-Feb-15 11:30N 48°23' W 004°29'0 0.0
2018-Feb-15 11:00N 48°23' W 004°29'0 0.0
2018-Feb-15 10:30N 48°23' W 004°29'0 0.0
2018-Feb-15 10:00N 48°23' W 004°29'0 0.0
2018-Feb-15 09:30N 48°23' W 004°29'0 0.0
2018-Feb-15 09:00N 48°23' W 004°29'0 0.0
2018-Feb-15 08:30N 48°23' W 004°29'0 0.0
2018-Feb-15 08:00N 48°23' W 004°29'0 0.0
2018-Feb-15 07:30N 48°23' W 004°29'0 0.0
2018-Feb-15 07:00N 48°23' W 004°29'0 0.0
2018-Feb-15 06:30N 48°23' W 004°29'0 0.0
2018-Feb-15 06:00N 48°23' W 004°29'0 0.0
2018-Feb-15 05:30N 48°23' W 004°29'0 0.0
2018-Feb-15 05:00N 48°23' W 004°29'0 0.0
2018-Feb-15 04:30N 48°23' W 004°29'0 0.0
2018-Feb-15 04:00N 48°23' W 004°29'0 0.0
2018-Feb-15 03:30N 48°23' W 004°29'0 0.0
2018-Feb-15 03:00N 48°23' W 004°29'0 0.0
2018-Feb-15 02:30N 48°23' W 004°29'0 0.0
2018-Feb-15 02:00N 48°23' W 004°29'0 0.0
2018-Feb-15 01:30N 48°23' W 004°29'0 0.0
2018-Feb-15 01:00N 48°23' W 004°29'0 0.0
2018-Feb-15 00:30N 48°23' W 004°29'0 0.0
2018-Feb-15 00:00N 48°23' W 004°29'0 0.0
2018-Feb-14 23:30N 48°23' W 004°29'0 0.0
2018-Feb-14 23:00N 48°23' W 004°29'0 0.0
2018-Feb-14 22:30N 48°23' W 004°29'0 0.0
2018-Feb-14 22:00N 48°23' W 004°29'0 0.0
2018-Feb-14 21:30N 48°23' W 004°29'0 0.0
2018-Feb-14 21:00N 48°23' W 004°29'0 0.0
2018-Feb-14 20:30N 48°23' W 004°29'0 0.0
2018-Feb-14 20:00N 48°23' W 004°29'0 0.0
2018-Feb-14 19:30N 48°23' W 004°29'0 0.0
2018-Feb-14 19:00N 48°23' W 004°29'0 0.0
2018-Feb-14 18:30N 48°23' W 004°29'0 0.0
2018-Feb-14 18:00N 48°23' W 004°29'0 0.0
2018-Feb-14 17:30N 48°23' W 004°29'0 0.0
2018-Feb-14 17:00N 48°23' W 004°29'0 0.0
2018-Feb-14 16:30N 48°23' W 004°29'0 0.0
2018-Feb-14 16:00N 48°23' W 004°29'0 0.0
2018-Feb-14 15:30N 48°23' W 004°29'0 0.0
2018-Feb-14 15:00N 48°23' W 004°29'0 0.0
2018-Feb-14 14:30N 48°23' W 004°29'0 0.0
2018-Feb-14 14:00N 48°23' W 004°29'0 0.0
2018-Feb-14 13:30N 48°23' W 004°29'0 0.0
2018-Feb-14 13:00N 48°23' W 004°29'0 0.0
2018-Feb-14 12:28N 48°23' W 004°29'0 0.0
2018-Feb-14 11:58N 48°23' W 004°29'0 0.0
2018-Feb-14 11:28N 48°23' W 004°29'0 0.0
2018-Feb-14 10:58N 48°23' W 004°29'0 0.0
2018-Feb-14 10:28N 48°23' W 004°29'0 0.0
2018-Feb-14 09:58N 48°23' W 004°29'0 0.0
2018-Feb-14 09:28N 48°23' W 004°29'0 0.0
2018-Feb-14 08:58N 48°23' W 004°29'0 0.0
2018-Feb-14 08:28N 48°23' W 004°29'0 0.0
2018-Feb-14 07:58N 48°23' W 004°29'0 0.0
2018-Feb-14 07:28N 48°23' W 004°29'0 0.0
2018-Feb-14 06:58N 48°23' W 004°29'0 0.0
2018-Feb-14 06:28N 48°23' W 004°29'0 0.0
2018-Feb-14 05:58N 48°23' W 004°29'0 0.0
2018-Feb-14 05:28N 48°23' W 004°29'0 0.0
2018-Feb-14 04:58N 48°23' W 004°29'0 0.0
2018-Feb-14 04:28N 48°23' W 004°29'0 0.0
2018-Feb-14 03:58N 48°23' W 004°29'0 0.0
2018-Feb-14 03:28N 48°23' W 004°29'0 0.0
2018-Feb-14 02:58N 48°23' W 004°29'0 0.0
2018-Feb-14 02:28N 48°23' W 004°29'0 0.0
2018-Feb-14 01:58N 48°23' W 004°29'0 0.0
2018-Feb-14 01:28N 48°23' W 004°29'0 0.0
2018-Feb-14 00:58N 48°23' W 004°29'0 0.0
2018-Feb-14 00:28N 48°23' W 004°29'0 0.0
2018-Feb-13 23:58N 48°23' W 004°29'0 0.0
2018-Feb-13 23:28N 48°23' W 004°29'0 0.0
2018-Feb-13 22:58N 48°23' W 004°29'0 0.0
2018-Feb-13 22:28N 48°23' W 004°29'0 0.0
2018-Feb-13 21:58N 48°23' W 004°29'0 0.0
2018-Feb-13 21:28N 48°23' W 004°29'0 0.0
2018-Feb-13 20:58N 48°23' W 004°29'0 0.0
2018-Feb-13 20:28N 48°23' W 004°29'0 0.0
2018-Feb-13 19:58N 48°23' W 004°29'0 0.0
2018-Feb-13 19:28N 48°23' W 004°29'0 0.0
2018-Feb-13 18:58N 48°23' W 004°29'0 0.0
2018-Feb-13 18:28N 48°23' W 004°29'0 0.0
2018-Feb-13 17:58N 48°23' W 004°29'0 0.0
2018-Feb-13 17:28N 48°23' W 004°29'0 0.0
2018-Feb-13 16:58N 48°23' W 004°29'0 0.0
2018-Feb-13 16:28N 48°23' W 004°29'0 0.0
2018-Feb-13 15:58N 48°23' W 004°29'0 0.0
2018-Feb-13 15:28N 48°23' W 004°29'0 0.0
2018-Feb-13 14:58N 48°23' W 004°29'0 0.0
2018-Feb-13 14:28N 48°23' W 004°29'0 0.0
2018-Feb-13 13:58N 48°23' W 004°29'0 0.0
2018-Feb-13 13:28N 48°23' W 004°29'0 0.0
2018-Feb-13 12:58N 48°23' W 004°29'0 0.0
2018-Feb-13 12:28N 48°23' W 004°29'0 0.0
2018-Feb-13 11:58N 48°23' W 004°29'0 0.0
2018-Feb-13 11:28N 48°23' W 004°29'0 0.0
2018-Feb-13 10:58N 48°23' W 004°29'0 0.0
2018-Feb-13 10:28N 48°23' W 004°29'0 0.0
2018-Feb-13 09:58N 48°23' W 004°29'0 0.0
2018-Feb-13 09:28N 48°23' W 004°29'0 0.0
2018-Feb-13 08:58N 48°23' W 004°29'0 0.0
2018-Feb-13 08:28N 48°23' W 004°29'0 0.0
2018-Feb-13 07:58N 48°23' W 004°29'0 0.0
2018-Feb-13 07:28N 48°23' W 004°29'0 0.0
2018-Feb-13 06:58N 48°23' W 004°29'0 0.0
2018-Feb-13 06:28N 48°23' W 004°29'0 0.0
2018-Feb-13 05:58N 48°23' W 004°29'0 0.0
2018-Feb-13 05:28N 48°23' W 004°29'0 0.0
2018-Feb-13 04:58N 48°23' W 004°29'0 0.0
2018-Feb-13 04:28N 48°23' W 004°29'0 0.0
2018-Feb-13 03:58N 48°23' W 004°29'0 0.0
2018-Feb-13 03:28N 48°23' W 004°29'0 0.0
2018-Feb-13 02:58N 48°23' W 004°29'0 0.0
2018-Feb-13 02:28N 48°23' W 004°29'0 0.0
2018-Feb-13 01:58N 48°23' W 004°29'0 0.0
2018-Feb-13 01:28N 48°23' W 004°29'0 0.0
2018-Feb-13 00:58N 48°23' W 004°29'0 0.0
2018-Feb-13 00:28N 48°23' W 004°29'0 0.0
2018-Feb-12 23:58N 48°23' W 004°29'0 0.0
2018-Feb-12 23:28N 48°23' W 004°29'  

Dump ship's entire track history